Time;durP1;ratioP1;P1;durP2;ratioP2;P2;SDS_P1;SDS_P2;PMS_P1;PMS_P2;Temp;Humidity;BMP_temperature;BMP_pressure;BME280_temperature;BME280_humidity;BME280_pressure;Samples;Min_cycle;Max_cycle;Signal;HPM_P1;HPM_P2
2023/01/12 00:01:09;;;;;;;4.82;1.48;;;;;;;5.95;100.00;100020.13;6139494;28;20122;-90
2023/01/12 00:04:12;;;;;;;6.63;1.33;;;;;;;5.97;100.00;100013.97;6161739;28;20042;-90
2023/01/12 00:07:15;;;;;;;5.90;1.67;;;;;;;6.01;100.00;100017.97;6147123;28;20159;-89
2023/01/12 00:10:17;;;;;;;4.95;1.20;;;;;;;5.98;100.00;100014.78;6159216;28;20426;-89
2023/01/12 00:13:20;;;;;;;7.63;1.33;;;;;;;5.99;100.00;100021.59;6144222;28;20050;-89
2023/01/12 00:16:41;;;;;;;7.78;1.60;;;;;;;5.97;100.00;100029.38;6145690;28;20070;-88
2023/01/12 00:19:43;;;;;;;7.90;1.83;;;;;;;6.06;100.00;100030.47;6160363;28;20039;-88
2023/01/12 00:22:48;;;;;;;5.40;1.33;;;;;;;6.03;100.00;100031.53;6151069;28;20042;-88
2023/01/12 00:25:51;;;;;;;9.15;1.65;;;;;;;6.04;100.00;100029.78;6145502;28;20057;-89
2023/01/12 00:28:53;;;;;;;7.30;1.30;;;;;;;6.06;100.00;100020.22;6152362;28;20498;-88
2023/01/12 00:31:57;;;;;;;6.60;1.42;;;;;;;6.10;100.00;100031.13;6151369;28;20410;-88
2023/01/12 00:34:59;;;;;;;5.05;1.55;;;;;;;6.13;100.00;100021.44;6160434;28;20485;-88
2023/01/12 00:38:02;;;;;;;6.70;1.40;;;;;;;6.14;100.00;100027.41;6155549;28;20039;-88
2023/01/12 00:41:08;;;;;;;5.72;1.70;;;;;;;6.15;100.00;100024.72;6157182;28;20047;-87
2023/01/12 00:47:33;;;;;;;7.65;1.60;;;;;;;6.20;100.00;100009.81;6155414;28;20650;-87
2023/01/12 00:50:35;;;;;;;5.00;2.00;;;;;;;6.15;100.00;100003.34;6162075;28;20042;-87
2023/01/12 00:53:36;;;;;;;5.40;2.10;;;;;;;6.19;100.00;100009.94;6160092;28;20054;-87
2023/01/12 00:56:39;;;;;;;7.10;1.88;;;;;;;6.21;100.00;100002.91;6163760;28;20045;-87
2023/01/12 00:59:43;;;;;;;8.65;1.90;;;;;;;6.30;100.00;100009.19;6163091;28;20058;-87
2023/01/12 01:02:45;;;;;;;9.10;2.15;;;;;;;6.27;100.00;100017.13;6176198;28;20047;-87
2023/01/12 01:05:47;;;;;;;5.32;1.40;;;;;;;6.27;100.00;100004.25;6163521;28;20489;-87
2023/01/12 01:08:49;;;;;;;4.93;2.13;;;;;;;6.31;100.00;100001.38;6161393;28;20035;-87
2023/01/12 01:11:50;;;;;;;6.53;1.48;;;;;;;6.33;100.00;100009.78;6148617;28;20050;-86
2023/01/12 01:14:52;;;;;;;4.85;1.63;;;;;;;6.40;100.00;99987.84;6145849;28;20043;-86
2023/01/12 01:17:54;;;;;;;5.05;1.60;;;;;;;6.34;100.00;99972.06;6161940;28;20047;-86
2023/01/12 01:20:56;;;;;;;7.25;1.80;;;;;;;6.32;100.00;99968.78;6145847;28;20062;-86
2023/01/12 01:23:58;;;;;;;6.45;1.52;;;;;;;6.45;100.00;99970.34;6163562;28;20046;-86
2023/01/12 01:27:01;;;;;;;3.85;1.17;;;;;;;6.50;100.00;99975.19;6176710;28;20055;-86
2023/01/12 01:30:03;;;;;;;5.68;1.58;;;;;;;6.67;100.00;99967.09;6155402;28;20047;-86
2023/01/12 01:33:05;;;;;;;7.60;1.83;;;;;;;6.78;100.00;99968.91;6162987;28;20042;-86
2023/01/12 01:36:08;;;;;;;3.75;1.08;;;;;;;6.87;100.00;99957.94;6163908;28;20039;-86
2023/01/12 01:39:10;;;;;;;4.78;1.67;;;;;;;6.92;100.00;99952.47;6161309;28;20042;-86
2023/01/12 01:42:26;;;;;;;2.95;1.00;;;;;;;6.88;100.00;99971.59;6163531;28;20066;-85
2023/01/12 01:45:28;;;;;;;3.60;0.80;;;;;;;6.97;100.00;99944.41;6161994;28;20089;-86
2023/01/12 01:48:34;;;;;;;5.50;1.42;;;;;;;6.99;100.00;99938.22;6163744;28;20576;-85
2023/01/12 01:51:35;;;;;;;3.60;1.00;;;;;;;7.00;100.00;99933.88;6160088;28;20043;-85
2023/01/12 01:54:47;;;;;;;4.57;1.02;;;;;;;7.02;100.00;99943.13;6159797;28;20421;-85
2023/01/12 01:58:23;;;;;;;2.08;0.93;;;;;;;7.02;100.00;99943.13;6156155;28;20051;-85
2023/01/12 02:01:24;;;;;;;3.40;1.00;;;;;;;6.97;100.00;99952.13;6133762;28;20082;-85
2023/01/12 02:04:27;;;;;;;2.20;0.95;;;;;;;6.98;100.00;99954.59;6117001;28;21084;-85
2023/01/12 02:07:30;;;;;;;3.30;1.08;;;;;;;6.97;100.00;99950.38;6116628;29;20047;-85
2023/01/12 02:10:32;;;;;;;4.85;1.20;;;;;;;6.87;100.00;99973.38;6104670;29;20055;-85
2023/01/12 02:17:19;;;;;;;2.22;1.02;;;;;;;6.88;100.00;99964.72;6134491;28;20512;-85
2023/01/12 02:20:40;;;;;;;5.03;1.52;;;;;;;6.87;100.00;99957.94;6134397;28;20062;-85
2023/01/12 02:24:06;;;;;;;2.95;1.20;;;;;;;6.80;100.00;99963.63;6116592;28;20178;-85
2023/01/12 02:27:46;;;;;;;3.92;1.30;;;;;;;6.79;100.00;99973.09;6134799;28;20656;-85
2023/01/12 02:31:18;;;;;;;4.55;1.42;;;;;;;6.90;100.00;99952.56;6113003;28;20063;-85
2023/01/12 02:34:50;;;;;;;3.40;1.48;;;;;;;6.88;100.00;99946.72;6123811;28;20453;-85
2023/01/12 02:38:04;;;;;;;3.85;1.50;;;;;;;6.87;100.00;99962.25;6131957;28;20066;-85
2023/01/12 02:45:26;;;;;;;5.88;1.88;;;;;;;6.95;100.00;99931.63;6153300;28;20054;-85
2023/01/12 02:48:54;;;;;;;7.18;1.77;;;;;;;6.99;100.00;99924.53;6134278;28;20108;-85
2023/01/12 02:52:02;;;;;;;3.75;1.73;;;;;;;7.01;100.00;99926.06;6132158;28;20089;-85
2023/01/12 02:55:05;;;;;;;3.35;1.58;;;;;;;6.97;100.00;99922.06;6133827;28;20625;-85
2023/01/12 02:58:11;;;;;;;7.03;1.70;;;;;;;6.99;100.00;99915.06;6118974;28;20410;-87
2023/01/12 03:01:15;;;;;;;5.10;1.65;;;;;;;7.09;100.00;99925.50;6117169;28;20055;-85
2023/01/12 03:04:19;;;;;;;2.60;1.10;;;;;;;7.12;100.00;99914.97;6134332;28;20047;-85
2023/01/12 03:07:59;;;;;;;4.68;1.20;;;;;;;7.11;100.00;99921.06;6115061;29;20501;-85
2023/01/12 03:11:07;;;;;;;2.50;0.98;;;;;;;7.02;100.00;99924.31;6131986;28;20058;-85
2023/01/12 03:14:12;;;;;;;4.03;1.10;;;;;;;6.94;100.00;99924.06;6133665;28;20047;-85
2023/01/12 03:17:22;;;;;;;4.07;0.90;;;;;;;6.95;100.00;99923.94;6134070;28;20157;-85
2023/01/12 03:20:27;;;;;;;1.35;0.90;;;;;;;6.98;100.00;99935.75;6133577;28;20047;-85
2023/01/12 03:23:38;;;;;;;3.78;1.30;;;;;;;7.08;100.00;99923.84;6133333;29;20497;-85
2023/01/12 03:26:45;;;;;;;2.70;0.98;;;;;;;7.12;100.00;99913.19;6170589;28;20552;-85
2023/01/12 03:29:57;;;;;;;1.75;0.93;;;;;;;7.22;100.00;99909.94;6156083;28;20032;-85
2023/01/12 03:32:59;;;;;;;2.30;1.10;;;;;;;7.23;100.00;99909.84;6148076;28;20073;-85
2023/01/12 03:36:06;;;;;;;2.95;1.00;;;;;;;7.23;100.00;99902.13;6146885;28;20046;-85
2023/01/12 03:39:26;;;;;;;3.90;1.25;;;;;;;7.21;100.00;99892.88;6146455;28;20517;-85
2023/01/12 03:42:56;;;;;;;3.50;1.10;;;;;;;7.18;100.00;99887.94;6150237;28;20611;-85
2023/01/12 03:46:15;;;;;;;1.98;0.95;;;;;;;7.02;100.00;99883.94;6144578;28;20406;-85
2023/01/12 03:49:25;;;;;;;3.35;1.40;;;;;;;7.08;100.00;99883.50;6161170;28;20052;-85
2023/01/12 03:52:29;;;;;;;4.43;1.30;;;;;;;7.11;100.00;99883.25;6147116;28;20078;-84
2023/01/12 03:55:34;;;;;;;1.58;1.00;;;;;;;7.15;100.00;99883.84;6151345;28;20047;-84
2023/01/12 03:58:36;;;;;;;3.83;1.30;;;;;;;7.10;100.00;99891.94;6153849;28;20519;-84
2023/01/12 04:01:38;;;;;;;1.88;1.10;;;;;;;7.02;100.00;99878.78;6146875;28;20241;-84
2023/01/12 04:04:40;;;;;;;3.50;1.20;;;;;;;6.99;100.00;99885.94;6161721;28;20038;-84
2023/01/12 04:07:41;;;;;;;5.10;1.50;;;;;;;6.96;100.00;99897.28;6161535;28;20058;-84
2023/01/12 04:10:43;;;;;;;2.92;0.95;;;;;;;6.90;100.00;99897.72;6162642;28;20047;-84
2023/01/12 04:13:44;;;;;;;2.63;1.35;;;;;;;6.90;100.00;99906.25;6156349;28;20055;-84
2023/01/12 04:16:46;;;;;;;2.63;1.40;;;;;;;6.85;100.00;99903.19;6165783;28;20035;-84
2023/01/12 04:19:48;;;;;;;1.48;1.20;;;;;;;6.85;100.00;99902.38;6166508;28;20445;-85
2023/01/12 04:22:50;;;;;;;2.72;1.27;;;;;;;6.80;100.00;99907.84;6164606;28;20399;-85
2023/01/12 04:25:51;;;;;;;4.72;1.25;;;;;;;6.78;100.00;99902.03;6162269;28;20512;-85
2023/01/12 04:28:54;;;;;;;5.20;1.30;;;;;;;6.77;100.00;99895.22;6165736;28;20055;-85
2023/01/12 04:31:56;;;;;;;4.43;1.10;;;;;;;6.78;100.00;99896.88;6161906;28;20048;-85
2023/01/12 04:34:57;;;;;;;4.35;1.45;;;;;;;6.78;100.00;99890.91;6166528;28;20108;-85
2023/01/12 04:38:07;;;;;;;2.83;1.20;;;;;;;6.77;100.00;99895.22;6167021;28;20170;-86
2023/01/12 04:41:09;;;;;;;1.75;1.00;;;;;;;6.81;100.00;99888.13;6162667;28;20061;-86
2023/01/12 04:44:10;;;;;;;5.95;1.33;;;;;;;6.79;100.00;99889.97;6164857;28;20161;-86
2023/01/12 04:47:12;;;;;;;3.33;1.20;;;;;;;6.78;100.00;99888.31;6163788;28;20043;-86
2023/01/12 04:50:14;;;;;;;3.65;1.25;;;;;;;6.76;100.00;99885.88;6169687;28;20074;-86
2023/01/12 04:53:16;;;;;;;3.78;1.27;;;;;;;6.73;100.00;99883.50;6170861;28;20043;-86
2023/01/12 04:56:18;;;;;;;4.13;1.02;;;;;;;6.75;100.00;99884.22;6166087;28;20050;-86
2023/01/12 04:59:20;;;;;;;3.58;1.40;;;;;;;6.76;100.00;99883.31;6166103;28;20177;-86
2023/01/12 05:02:22;;;;;;;2.25;1.00;;;;;;;6.78;100.00;99883.19;6165653;28;20054;-86
2023/01/12 05:05:24;;;;;;;1.35;1.10;;;;;;;6.79;100.00;99872.78;6166705;28;20054;-86
2023/01/12 05:11:47;;;;;;;3.38;1.20;;;;;;;6.84;100.00;99862.16;6175322;28;20405;-87
2023/01/12 05:14:49;;;;;;;3.22;0.95;;;;;;;6.84;100.00;99859.59;6165233;28;20050;-88
2023/01/12 05:17:53;;;;;;;3.80;0.93;;;;;;;6.82;100.00;99851.16;6148762;28;20528;-88
2023/01/12 05:20:55;;;;;;;1.60;1.00;;;;;;;6.79;100.00;99847.06;6166778;28;20054;-88
2023/01/12 05:23:57;;;;;;;4.28;1.20;;;;;;;6.79;100.00;99841.13;6164787;28;20513;-88
2023/01/12 05:27:05;;;;;;;4.10;1.00;;;;;;;6.81;100.00;99837.50;6166483;28;20046;-88
2023/01/12 05:30:08;;;;;;;3.53;1.00;;;;;;;6.82;100.00;99835.72;6165353;28;20043;-88
2023/01/12 05:33:19;;;;;;;1.60;1.08;;;;;;;6.83;100.00;99833.06;6163614;28;20113;-88
2023/01/12 05:36:20;;;;;;;1.17;0.75;;;;;;;6.85;100.00;99832.94;6160070;28;20042;-88
2023/01/12 05:39:25;;;;;;;1.65;0.80;;;;;;;6.84;100.00;99826.16;6164771;28;20167;-88
2023/01/12 05:45:47;;;;;;;3.22;1.10;;;;;;;6.80;100.00;99814.44;6165137;28;20489;-89
2023/01/12 05:48:51;;;;;;;4.40;0.80;;;;;;;6.83;100.00;99811.63;6165798;28;20117;-89
2023/01/12 05:51:53;;;;;;;4.05;1.33;;;;;;;6.81;100.00;99798.91;6163253;28;20173;-89
2023/01/12 05:54:55;;;;;;;3.30;0.80;;;;;;;6.86;100.00;99801.13;6165360;28;20042;-89
2023/01/12 05:57:59;;;;;;;3.50;0.90;;;;;;;6.82;100.00;99795.38;6163976;28;20039;-88
2023/01/12 06:01:05;;;;;;;1.48;0.60;;;;;;;6.81;100.00;99790.38;6163976;28;20411;-89
2023/01/12 06:04:07;;;;;;;2.60;0.93;;;;;;;6.80;100.00;99788.72;6164077;28;20050;-89
2023/01/12 06:07:12;;;;;;;2.28;0.90;;;;;;;6.82;100.00;99784.28;6158647;28;20490;-89
2023/01/12 06:10:14;;;;;;;1.13;0.65;;;;;;;6.80;100.00;99760.44;6157825;28;20039;-89
2023/01/12 06:16:38;;;;;;;1.55;0.70;;;;;;;6.81;100.00;99765.47;6159201;28;20508;-89
2023/01/12 06:19:40;;;;;;;3.00;0.73;;;;;;;6.79;100.00;99767.34;6164975;28;20397;-89
2023/01/12 06:22:43;;;;;;;2.35;0.70;;;;;;;6.83;100.00;99773.06;6162333;28;20051;-89
2023/01/12 06:25:45;;;;;;;1.88;0.70;;;;;;;6.83;100.00;99758.47;6163498;28;20508;-89
2023/01/12 06:28:47;;;;;;;2.47;0.65;;;;;;;6.86;100.00;99755.66;6163190;28;20756;-89
2023/01/12 06:31:49;;;;;;;1.60;0.85;;;;;;;6.87;100.00;99761.59;6162613;28;20035;-90
2023/01/12 06:34:51;;;;;;;2.08;0.88;;;;;;;6.82;100.00;99749.09;6161745;28;20042;-89
2023/01/12 06:37:56;;;;;;;1.08;0.50;;;;;;;6.86;100.00;99750.50;6162080;28;20410;-90
2023/01/12 06:42:27;;;;;;;1.25;0.68;;;;;;;6.87;100.00;99733.31;6164499;28;20121;-90
2023/01/12 06:44:34;;;;;;;1.35;0.70;;;;;;;6.88;100.00;99738.34;6153062;28;20055;-90
2023/01/12 06:47:48;;;;;;;0.90;0.50;;;;;;;6.86;100.00;99729.94;6165057;28;20173;-89
2023/01/12 06:50:49;;;;;;;0.98;0.60;;;;;;;6.88;100.00;99711.78;6157754;28;20054;-90
2023/01/12 06:53:52;;;;;;;2.05;0.43;;;;;;;6.85;100.00;99707.69;6162458;28;20112;-90
2023/01/12 06:56:54;;;;;;;0.95;0.50;;;;;;;6.87;100.00;99716.13;6162540;28;21034;-89
2023/01/12 06:59:56;;;;;;;1.67;0.50;;;;;;;6.84;100.00;99710.41;6165272;28;20046;-89
2023/01/12 07:02:58;;;;;;;1.70;0.45;;;;;;;6.81;100.00;99703.75;6155336;28;20465;-89
2023/01/12 07:06:00;;;;;;;2.15;0.60;;;;;;;6.80;100.00;99704.66;6163937;28;20039;-88
2023/01/12 07:09:04;;;;;;;1.83;0.63;;;;;;;6.83;100.00;99691.59;6158301;28;20433;-88
2023/01/12 07:12:06;;;;;;;0.88;0.40;;;;;;;6.79;100.00;99690.16;6146399;28;20043;-89
2023/01/12 07:15:09;;;;;;;1.98;0.65;;;;;;;6.80;100.00;99698.69;6163434;28;20043;-88
2023/01/12 07:18:11;;;;;;;2.75;0.80;;;;;;;6.82;100.00;99699.41;6162992;28;20493;-89
2023/01/12 07:21:15;;;;;;;1.38;0.50;;;;;;;6.77;100.00;99697.19;6163392;28;20046;-88
2023/01/12 07:24:17;;;;;;;0.50;0.40;;;;;;;6.83;100.00;99693.31;6163307;28;20420;-88
2023/01/12 07:27:19;;;;;;;1.75;0.50;;;;;;;6.84;100.00;99689.81;6157279;28;20046;-89
2023/01/12 07:30:22;;;;;;;2.55;0.70;;;;;;;6.82;100.00;99686.53;6153655;28;20044;-88
2023/01/12 07:33:24;;;;;;;0.75;0.55;;;;;;;6.82;100.00;99679.63;6162780;28;20070;-88
2023/01/12 07:36:26;;;;;;;2.90;0.63;;;;;;;6.80;100.00;99662.69;6159112;28;20051;-88
2023/01/12 07:39:27;;;;;;;0.90;0.38;;;;;;;6.80;100.00;99650.63;6155975;28;20051;-87
2023/01/12 07:42:29;;;;;;;1.30;0.60;;;;;;;6.75;100.00;99646.78;6162798;28;20512;-88
2023/01/12 07:45:31;;;;;;;0.82;0.55;;;;;;;6.72;100.00;99631.63;6163261;28;20049;-88
2023/01/12 07:48:33;;;;;;;1.48;0.60;;;;;;;6.72;100.00;99629.03;6157840;28;20069;-87
2023/01/12 07:51:35;;;;;;;1.02;0.43;;;;;;;6.71;100.00;99617.09;6168059;28;20051;-87
2023/01/12 07:54:37;;;;;;;0.77;0.40;;;;;;;6.79;100.00;99612.19;6164916;28;20067;-88
2023/01/12 07:57:39;;;;;;;1.33;0.50;;;;;;;6.79;100.00;99607.06;6160212;28;20039;-89
2023/01/12 08:00:41;;;;;;;1.38;0.40;;;;;;;6.80;100.00;99600.97;6165690;28;20196;-88
2023/01/12 08:03:43;;;;;;;0.88;0.60;;;;;;;6.84;100.00;99602.38;6157469;28;20053;-89
2023/01/12 08:06:45;;;;;;;2.65;0.57;;;;;;;6.86;100.00;99600.50;6168724;28;20972;-88
2023/01/12 08:09:47;;;;;;;1.13;0.40;;;;;;;6.82;100.00;99569.03;6168387;28;20406;-89
2023/01/12 08:12:50;;;;;;;1.33;0.50;;;;;;;6.86;100.00;99574.78;6167659;28;20043;-89
2023/01/12 08:15:53;;;;;;;1.45;0.40;;;;;;;6.83;100.00;99557.81;6166749;28;20043;-89
2023/01/12 08:19:08;;;;;;;1.40;0.50;;;;;;;6.86;100.00;99569.63;6154934;28;20047;-89
2023/01/12 08:22:19;;;;;;;0.60;0.57;;;;;;;6.81;100.00;99559.69;6165550;28;20050;-90
2023/01/12 08:25:29;;;;;;;1.83;0.40;;;;;;;6.78;100.00;99565.09;6166426;28;20506;-91
2023/01/12 08:28:37;;;;;;;2.00;0.60;;;;;;;6.85;100.00;99547.41;6167193;28;20441;-90
2023/01/12 08:31:42;;;;;;;1.77;0.45;;;;;;;6.87;100.00;99563.53;6167161;28;20057;-90
2023/01/12 08:34:50;;;;;;;0.80;0.50;;;;;;;6.87;100.00;99545.53;6173592;28;20054;-90
2023/01/12 08:37:54;;;;;;;0.40;0.40;;;;;;;6.88;100.00;99552.28;6166745;28;20043;-91
2023/01/12 08:44:16;;;;;;;1.25;0.30;;;;;;;6.85;100.00;99573.13;6160895;28;20416;-91
2023/01/12 08:47:29;;;;;;;1.48;0.40;;;;;;;6.90;100.00;99574.38;6164686;28;20576;-91
2023/01/12 08:50:30;;;;;;;1.02;0.22;;;;;;;6.98;100.00;99553.22;6159473;28;20051;-92
2023/01/12 08:53:33;;;;;;;0.90;0.38;;;;;;;7.04;100.00;99549.34;6159607;28;20405;-91
2023/01/12 08:56:35;;;;;;;0.95;0.38;;;;;;;7.09;100.00;99566.03;6162937;28;20527;-91
2023/01/12 08:59:37;;;;;;;0.70;0.32;;;;;;;7.10;100.00;99559.97;6166220;28;20046;-91
2023/01/12 09:02:39;;;;;;;0.88;0.38;;;;;;;7.05;100.00;99544.06;6153140;28;20058;-91
2023/01/12 09:05:43;;;;;;;2.30;0.45;;;;;;;7.10;100.00;99541.94;6171614;28;20077;-91
2023/01/12 09:08:45;;;;;;;0.30;0.30;;;;;;;7.07;100.00;99549.09;6153189;28;20406;-91
2023/01/12 09:11:49;;;;;;;1.85;0.30;;;;;;;7.16;100.00;99544.97;6161335;28;20086;-90
2023/01/12 09:14:52;;;;;;;0.70;0.25;;;;;;;7.20;100.00;99560.00;6163451;28;20043;-90
2023/01/12 09:17:55;;;;;;;3.30;1.20;;;;;;;7.26;100.00;99549.25;6160192;28;20166;-91
2023/01/12 09:21:05;;;;;;;1.27;0.20;;;;;;;7.36;100.00;99549.31;6146430;28;20050;-91
2023/01/12 09:24:08;;;;;;;0.22;0.22;;;;;;;7.40;100.00;99552.44;6154603;28;20046;-91
2023/01/12 09:27:10;;;;;;;0.50;0.20;;;;;;;7.52;100.00;99552.25;6151117;28;20080;-91
2023/01/12 09:30:12;;;;;;;1.17;0.40;;;;;;;7.53;100.00;99543.59;6165032;28;20108;-91
2023/01/12 09:33:14;;;;;;;0.52;0.38;;;;;;;7.59;100.00;99555.16;6153659;28;20446;-90
2023/01/12 09:36:19;;;;;;;0.90;0.32;;;;;;;7.63;100.00;99568.63;6151997;28;20046;-90
2023/01/12 09:39:21;;;;;;;0.98;0.22;;;;;;;7.65;100.00;99572.69;6166520;28;20044;-90
2023/01/12 09:49:11;;;;;;;0.50;0.50;;;;;;;7.75;100.00;99580.47;6149824;28;20046;-90
2023/01/12 09:52:25;;;;;;;0.30;0.22;;;;;;;7.80;100.00;99586.06;6146608;28;20490;-89
2023/01/12 09:55:51;;;;;;;1.23;0.43;;;;;;;7.84;100.00;99571.97;6160132;28;20078;-89
2023/01/12 09:59:08;;;;;;;0.95;0.30;;;;;;;7.89;100.00;99563.88;6171478;28;20587;-89
2023/01/12 10:02:12;;;;;;;0.60;0.40;;;;;;;7.81;100.00;99581.72;6169733;28;20422;-89
2023/01/12 10:05:35;;;;;;;0.20;0.20;;;;;;;7.82;100.00;99585.94;6170099;28;20093;-89
2023/01/12 10:08:49;;;;;;;0.45;0.28;;;;;;;7.76;100.00;99570.03;6170661;28;20096;-89
2023/01/12 10:12:02;;;;;;;0.20;0.20;;;;;;;7.82;100.00;99591.06;6171920;28;20501;-89
2023/01/12 10:15:19;;;;;;;0.30;0.20;;;;;;;7.83;100.00;99598.69;6162863;28;20077;-89
2023/01/12 10:18:38;;;;;;;0.30;0.30;;;;;;;7.97;100.00;99594.97;6170826;28;20046;-89
2023/01/12 10:21:40;;;;;;;0.75;0.30;;;;;;;8.09;100.00;99581.06;6172787;28;20086;-89
2023/01/12 10:24:43;;;;;;;2.95;0.30;;;;;;;8.14;100.00;99580.66;6158674;28;20051;-89
2023/01/12 10:27:49;;;;;;;0.47;0.35;;;;;;;8.19;100.00;99581.91;6164279;28;20516;-89
2023/01/12 10:30:52;;;;;;;0.30;0.30;;;;;;;8.25;100.00;99588.34;6168507;28;20046;-89
2023/01/12 10:34:10;;;;;;;0.30;0.30;;;;;;;8.27;100.00;99591.56;6169935;28;20046;-89
2023/01/12 10:37:13;;;;;;;0.40;0.40;;;;;;;8.34;100.00;99579.78;6164668;28;20433;-89
2023/01/12 10:40:31;;;;;;;0.20;0.20;;;;;;;8.48;100.00;99591.56;6162208;28;20039;-89
2023/01/12 10:43:33;;;;;;;1.15;0.40;;;;;;;8.61;100.00;99592.13;6158451;28;20058;-89
2023/01/12 10:46:35;;;;;;;0.47;0.30;;;;;;;8.71;100.00;99568.94;6161115;28;20043;-89
2023/01/12 10:49:37;;;;;;;0.65;0.30;;;;;;;8.74;100.00;99573.81;6162600;28;20413;-89
2023/01/12 10:52:40;;;;;;;1.10;0.40;;;;;;;8.78;100.00;99567.47;6147964;28;20102;-88
2023/01/12 10:55:43;;;;;;;0.82;0.40;;;;;;;8.87;100.00;99558.13;6147010;28;20035;-89
2023/01/12 10:58:52;;;;;;;0.20;0.20;;;;;;;8.89;100.00;99555.38;6162361;28;20035;-88
2023/01/12 11:02:07;;;;;;;0.17;0.17;;;;;;;8.89;100.00;99555.38;6145340;28;20439;-88
2023/01/12 11:05:30;;;;;;;0.63;0.40;;;;;;;8.97;100.00;99560.72;6146363;28;20070;-88
2023/01/12 11:08:32;;;;;;;1.30;0.40;;;;;;;9.11;100.00;99552.53;6148057;28;20050;-87
2023/01/12 11:11:33;;;;;;;0.45;0.40;;;;;;;9.29;100.00;99563.00;6152705;28;20505;-88
2023/01/12 11:14:36;;;;;;;1.48;0.30;;;;;;;9.38;100.00;99543.31;6150064;28;20070;-87
2023/01/12 11:17:43;;;;;;;0.50;0.40;;;;;;;9.35;100.00;99546.97;6153706;28;20338;-87
2023/01/12 11:20:52;;;;;;;0.30;0.30;;;;;;;9.33;100.00;99545.47;6146181;28;20244;-86
2023/01/12 11:24:04;;;;;;;0.30;0.30;;;;;;;9.38;100.00;99540.72;6151406;28;20054;-86
2023/01/12 11:27:26;;;;;;;0.40;0.40;;;;;;;9.48;100.00;99549.25;6147037;28;20047;-86
2023/01/12 11:30:36;;;;;;;0.50;0.50;;;;;;;9.58;100.00;99557.00;6161886;28;20527;-86
2023/01/12 11:33:51;;;;;;;1.38;0.50;;;;;;;9.63;100.00;99541.91;6155148;28;20035;-86
2023/01/12 11:37:01;;;;;;;0.47;0.40;;;;;;;9.69;100.00;99537.00;6150992;28;20038;-87
2023/01/12 11:40:16;;;;;;;0.30;0.30;;;;;;;9.76;100.00;99544.97;6159893;28;20468;-86
2023/01/12 11:43:49;;;;;;;0.60;0.60;;;;;;;9.81;100.00;99534.22;6161599;28;20043;-85
2023/01/12 11:47:02;;;;;;;0.60;0.60;;;;;;;9.73;100.00;99529.75;6162137;28;20138;-86
2023/01/12 11:50:32;;;;;;;0.82;0.63;;;;;;;9.70;100.00;99548.13;6154570;28;20587;-86
2023/01/12 11:53:34;;;;;;;0.63;0.57;;;;;;;9.70;100.00;99538.63;6170524;28;20051;-86
2023/01/12 11:57:10;;;;;;;0.77;0.60;;;;;;;9.77;100.00;99536.28;6161338;28;20039;-87
2023/01/12 12:00:58;;;;;;;0.60;0.60;;;;;;;9.86;100.00;99532.88;6165580;28;20047;-86
2023/01/12 12:04:05;;;;;;;1.60;0.60;;;;;;;9.98;100.00;99523.16;6145817;28;20039;-86
2023/01/12 12:07:47;;;;;;;1.75;0.57;;;;;;;9.99;100.00;99526.56;6161310;28;20082;-86
2023/01/12 12:10:59;;;;;;;0.60;0.60;;;;;;;9.98;100.00;99533.50;6156046;28;20035;-86
2023/01/12 12:14:16;;;;;;;1.02;0.60;;;;;;;10.05;100.00;99524.22;6160297;28;20071;-86
2023/01/12 12:17:55;;;;;;;0.65;0.60;;;;;;;10.07;100.00;99534.44;6162020;28;20572;-86
2023/01/12 12:21:34;;;;;;;0.50;0.50;;;;;;;10.17;100.00;99518.88;6158134;28;20039;-86
2023/01/12 12:24:42;;;;;;;1.17;0.52;;;;;;;10.29;100.00;99531.50;6153158;28;20046;-86
2023/01/12 12:28:07;;;;;;;0.75;0.50;;;;;;;10.44;100.00;99529.25;6146353;28;20648;-86
2023/01/12 12:31:30;;;;;;;1.65;0.50;;;;;;;10.49;100.00;99514.09;6162155;28;20043;-86
2023/01/12 12:34:50;;;;;;;0.40;0.40;;;;;;;10.40;100.00;99514.16;6141926;28;20051;-86
2023/01/12 12:38:30;;;;;;;0.40;0.40;;;;;;;10.30;100.00;99516.78;6164317;28;20043;-86
2023/01/12 12:45:36;;;;;;;0.50;0.50;;;;;;;10.23;100.00;99515.69;6159048;28;20057;-86
2023/01/12 12:48:48;;;;;;;0.93;0.50;;;;;;;10.26;100.00;99516.25;6157275;28;20050;-86
2023/01/12 12:51:51;;;;;;;2.15;0.60;;;;;;;10.34;100.00;99520.72;6166250;28;20117;-86
2023/01/12 12:54:56;;;;;;;0.40;0.40;;;;;;;10.40;100.00;99514.94;6160161;28;20055;-85
2023/01/12 12:58:20;;;;;;;0.50;0.50;;;;;;;10.54;100.00;99514.47;6165770;28;20054;-85
2023/01/12 13:01:22;;;;;;;0.40;0.40;;;;;;;10.63;100.00;99510.16;6166274;28;20120;-86
2023/01/12 13:04:47;;;;;;;0.35;0.35;;;;;;;10.70;100.00;99507.81;6165628;28;20405;-85
2023/01/12 13:07:51;;;;;;;0.82;0.40;;;;;;;10.55;100.00;99508.31;6136916;28;20070;-85
2023/01/12 13:10:56;;;;;;;0.50;0.50;;;;;;;10.43;100.00;99506.09;6137915;28;20074;-85
2023/01/12 13:14:00;;;;;;;0.40;0.40;;;;;;;10.32;100.00;99500.16;6123471;28;20054;-86
2023/01/12 13:17:25;;;;;;;0.38;0.38;;;;;;;10.33;100.00;99512.16;6139644;29;20229;-85
2023/01/12 13:20:50;;;;;;;0.35;0.32;;;;;;;10.42;100.00;99513.03;6136900;28;20055;-86
2023/01/12 13:24:13;;;;;;;0.68;0.43;;;;;;;10.51;100.00;99517.34;6135957;28;20489;-85
2023/01/12 13:27:47;;;;;;;0.30;0.30;;;;;;;10.56;100.00;99503.97;6118600;28;20051;-86
2023/01/12 13:30:51;;;;;;;0.60;0.40;;;;;;;10.56;100.00;99507.38;6136865;28;20059;-86
2023/01/12 13:34:31;;;;;;;0.40;0.40;;;;;;;10.51;100.00;99507.00;6138936;28;20047;-86
2023/01/12 13:38:14;;;;;;;0.38;0.38;;;;;;;10.51;100.00;99506.19;6133997;28;20059;-86
2023/01/12 13:44:56;;;;;;;0.38;0.32;;;;;;;10.32;100.00;99526.03;6090715;29;20127;-86
2023/01/12 13:47:58;;;;;;;0.90;0.40;;;;;;;10.20;100.00;99516.81;6113684;29;20047;-86
2023/01/12 13:51:28;;;;;;;0.50;0.50;;;;;;;10.13;100.00;99529.47;6108727;29;20170;-86
2023/01/12 13:54:32;;;;;;;0.98;0.40;;;;;;;10.04;100.00;99530.34;6114438;29;20084;-86
2023/01/12 13:57:34;;;;;;;0.50;0.50;;;;;;;9.97;100.00;99523.31;6107946;29;20579;-86
2023/01/12 14:00:36;;;;;;;0.40;0.40;;;;;;;9.93;100.00;99533.09;6109810;29;20058;-85
2023/01/12 14:04:20;;;;;;;0.88;0.40;;;;;;;9.90;100.00;99523.06;6088920;29;20056;-86
2023/01/12 14:07:53;;;;;;;0.50;0.50;;;;;;;9.91;100.00;99528.09;6111980;29;20062;-86
2023/01/12 14:11:07;;;;;;;0.95;0.80;;;;;;;9.92;100.00;99534.88;6112504;29;20159;-86
2023/01/12 14:18:28;;;;;;;0.50;0.50;;;;;;;9.93;100.00;99541.66;6138300;28;20050;-86
2023/01/12 14:21:36;;;;;;;0.93;0.55;;;;;;;9.92;100.00;99542.63;6110459;29;20079;-86
2023/01/12 14:24:38;;;;;;;1.55;0.70;;;;;;;9.95;100.00;99541.53;6112326;29;20059;-86
2023/01/12 14:27:53;;;;;;;0.63;0.63;;;;;;;10.00;100.00;99541.13;6096441;29;20067;-86
2023/01/12 14:30:55;;;;;;;0.40;0.40;;;;;;;9.97;100.00;99539.63;6112088;29;20067;-86
2023/01/12 14:34:00;;;;;;;0.70;0.60;;;;;;;10.02;100.00;99540.03;6096071;29;20080;-86
2023/01/12 14:37:20;;;;;;;0.40;0.40;;;;;;;9.92;100.00;99547.81;6111351;29;20043;-86
2023/01/12 14:40:30;;;;;;;0.40;0.40;;;;;;;9.86;100.00;99540.63;6111978;29;20047;-85
2023/01/12 14:46:55;;;;;;;1.17;0.57;;;;;;;9.80;100.00;99561.03;6095563;29;20076;-85
2023/01/12 14:50:14;;;;;;;0.52;0.40;;;;;;;9.69;100.00;99557.66;6096360;29;20105;-85
2023/01/12 14:53:39;;;;;;;0.30;0.30;;;;;;;9.74;100.00;99543.50;6092875;29;20059;-85
2023/01/12 14:56:55;;;;;;;0.40;0.40;;;;;;;9.64;100.00;99557.28;6117732;28;20059;-85
2023/01/12 14:59:57;;;;;;;0.47;0.43;;;;;;;9.64;100.00;99559.03;6146618;28;20035;-85
2023/01/12 15:03:03;;;;;;;0.30;0.30;;;;;;;9.62;100.00;99566.94;6160696;28;20521;-85
2023/01/12 15:06:05;;;;;;;0.50;0.40;;;;;;;9.63;100.00;99559.97;6150039;28;20074;-85
2023/01/12 15:09:49;;;;;;;0.30;0.30;;;;;;;9.63;100.00;99550.47;6149594;28;20401;-85
2023/01/12 15:12:53;;;;;;;0.40;0.32;;;;;;;9.62;100.00;99555.78;6146481;28;20035;-85
2023/01/12 15:25:57;;;;;;;0.50;0.50;;;;;;;9.70;100.00;99551.53;6139713;28;20046;-85
2023/01/12 15:28:59;;;;;;;0.40;0.40;;;;;;;9.64;100.00;99541.78;6146219;28;20043;-85
2023/01/12 15:32:02;;;;;;;0.55;0.50;;;;;;;9.66;100.00;99542.44;6152181;28;20120;-85
2023/01/12 15:35:23;;;;;;;1.25;0.55;;;;;;;9.65;100.00;99540.81;6153853;28;20836;-85
2023/01/12 15:38:27;;;;;;;0.50;0.50;;;;;;;9.63;100.00;99547.88;6156984;28;20528;-85
2023/01/12 15:45:33;;;;;;;0.60;0.55;;;;;;;9.64;100.00;99554.69;6106631;29;20060;-85